sensor_id;sensor_type;location;lat;lon;timestamp;P1;durP1;ratioP1;P2;durP2;ratioP2
59854;SDS011;45732;52.850;6.896;2022-11-30T00:01:13;37.92;;;22.40;;
59854;SDS011;45732;52.850;6.896;2022-11-30T00:03:41;37.85;;;22.98;;
59854;SDS011;45732;52.850;6.896;2022-11-30T00:06:07;39.95;;;23.08;;
59854;SDS011;45732;52.850;6.896;2022-11-30T00:08:35;37.08;;;23.83;;
59854;SDS011;45732;52.850;6.896;2022-11-30T00:11:06;36.67;;;24.10;;
59854;SDS011;45732;52.850;6.896;2022-11-30T00:13:33;40.72;;;24.60;;
59854;SDS011;45732;52.850;6.896;2022-11-30T00:15:59;33.70;;;22.50;;
59854;SDS011;45732;52.850;6.896;2022-11-30T00:18:25;39.30;;;24.05;;
59854;SDS011;45732;52.850;6.896;2022-11-30T00:20:51;38.40;;;24.17;;
59854;SDS011;45732;52.850;6.896;2022-11-30T00:23:17;36.55;;;23.80;;
59854;SDS011;45732;52.850;6.896;2022-11-30T00:25:42;37.55;;;24.40;;
59854;SDS011;45732;52.850;6.896;2022-11-30T00:28:08;41.38;;;25.73;;
59854;SDS011;45732;52.850;6.896;2022-11-30T00:30:34;39.80;;;24.83;;
59854;SDS011;45732;52.850;6.896;2022-11-30T00:32:59;38.78;;;24.25;;
59854;SDS011;45732;52.850;6.896;2022-11-30T00:35:25;42.92;;;25.45;;
59854;SDS011;45732;52.850;6.896;2022-11-30T00:37:51;41.40;;;25.17;;
59854;SDS011;45732;52.850;6.896;2022-11-30T00:40:16;41.35;;;25.80;;
59854;SDS011;45732;52.850;6.896;2022-11-30T00:42:42;44.70;;;26.55;;
59854;SDS011;45732;52.850;6.896;2022-11-30T00:45:08;42.63;;;26.33;;
59854;SDS011;45732;52.850;6.896;2022-11-30T00:47:34;45.90;;;27.85;;
59854;SDS011;45732;52.850;6.896;2022-11-30T00:50:00;47.17;;;29.02;;
59854;SDS011;45732;52.850;6.896;2022-11-30T00:52:27;48.13;;;28.35;;
59854;SDS011;45732;52.850;6.896;2022-11-30T00:54:54;50.85;;;29.00;;
59854;SDS011;45732;52.850;6.896;2022-11-30T00:57:20;54.53;;;28.17;;
59854;SDS011;45732;52.850;6.896;2022-11-30T00:59:46;50.45;;;29.40;;
59854;SDS011;45732;52.850;6.896;2022-11-30T01:02:11;54.72;;;31.13;;
59854;SDS011;45732;52.850;6.896;2022-11-30T01:04:38;57.22;;;30.90;;
59854;SDS011;45732;52.850;6.896;2022-11-30T01:07:03;61.05;;;33.20;;
59854;SDS011;45732;52.850;6.896;2022-11-30T01:09:29;63.15;;;33.28;;
59854;SDS011;45732;52.850;6.896;2022-11-30T01:11:55;59.28;;;31.60;;
59854;SDS011;45732;52.850;6.896;2022-11-30T01:14:20;60.70;;;32.90;;
59854;SDS011;45732;52.850;6.896;2022-11-30T01:16:46;60.20;;;31.67;;
59854;SDS011;45732;52.850;6.896;2022-11-30T01:19:12;56.75;;;31.08;;
59854;SDS011;45732;52.850;6.896;2022-11-30T01:21:37;51.20;;;30.63;;
59854;SDS011;45732;52.850;6.896;2022-11-30T01:24:03;52.72;;;29.98;;
59854;SDS011;45732;52.850;6.896;2022-11-30T01:26:29;49.97;;;29.60;;
59854;SDS011;45732;52.850;6.896;2022-11-30T01:28:55;50.08;;;29.88;;
59854;SDS011;45732;52.850;6.896;2022-11-30T01:31:21;47.03;;;27.83;;
59854;SDS011;45732;52.850;6.896;2022-11-30T01:33:51;45.17;;;26.58;;
59854;SDS011;45732;52.850;6.896;2022-11-30T01:36:20;48.75;;;27.98;;
59854;SDS011;45732;52.850;6.896;2022-11-30T01:38:49;44.13;;;27.77;;
59854;SDS011;45732;52.850;6.896;2022-11-30T01:41:17;41.38;;;26.23;;
59854;SDS011;45732;52.850;6.896;2022-11-30T01:43:53;44.88;;;27.92;;
59854;SDS011;45732;52.850;6.896;2022-11-30T01:46:51;44.47;;;26.90;;
59854;SDS011;45732;52.850;6.896;2022-11-30T01:51:59;43.17;;;26.35;;
59854;SDS011;45732;52.850;6.896;2022-11-30T01:54:31;42.75;;;26.67;;
59854;SDS011;45732;52.850;6.896;2022-11-30T02:00:11;37.33;;;25.75;;
59854;SDS011;45732;52.850;6.896;2022-11-30T02:02:42;40.83;;;25.27;;
59854;SDS011;45732;52.850;6.896;2022-11-30T02:05:24;35.08;;;24.55;;
59854;SDS011;45732;52.850;6.896;2022-11-30T02:07:51;35.58;;;23.55;;
59854;SDS011;45732;52.850;6.896;2022-11-30T02:10:20;34.97;;;24.15;;
59854;SDS011;45732;52.850;6.896;2022-11-30T02:15:22;33.92;;;23.38;;
59854;SDS011;45732;52.850;6.896;2022-11-30T02:18:09;37.67;;;24.80;;
59854;SDS011;45732;52.850;6.896;2022-11-30T02:29:03;34.83;;;23.63;;
59854;SDS011;45732;52.850;6.896;2022-11-30T02:34:45;35.80;;;23.02;;
59854;SDS011;45732;52.850;6.896;2022-11-30T02:37:12;33.30;;;23.23;;
59854;SDS011;45732;52.850;6.896;2022-11-30T02:39:41;32.25;;;22.65;;
59854;SDS011;45732;52.850;6.896;2022-11-30T02:42:11;35.20;;;23.27;;
59854;SDS011;45732;52.850;6.896;2022-11-30T02:44:41;33.28;;;22.25;;
59854;SDS011;45732;52.850;6.896;2022-11-30T02:47:22;34.67;;;23.75;;
59854;SDS011;45732;52.850;6.896;2022-11-30T02:49:52;33.05;;;23.48;;
59854;SDS011;45732;52.850;6.896;2022-11-30T02:52:23;32.03;;;23.15;;
59854;SDS011;45732;52.850;6.896;2022-11-30T02:54:50;34.42;;;22.85;;
59854;SDS011;45732;52.850;6.896;2022-11-30T02:57:17;35.22;;;23.40;;
59854;SDS011;45732;52.850;6.896;2022-11-30T02:59:42;35.53;;;24.40;;
59854;SDS011;45732;52.850;6.896;2022-11-30T03:02:08;34.97;;;23.50;;
59854;SDS011;45732;52.850;6.896;2022-11-30T03:04:34;33.63;;;23.23;;
59854;SDS011;45732;52.850;6.896;2022-11-30T03:06:59;34.75;;;23.77;;
59854;SDS011;45732;52.850;6.896;2022-11-30T03:09:25;37.50;;;24.48;;
59854;SDS011;45732;52.850;6.896;2022-11-30T03:11:51;34.53;;;23.48;;
59854;SDS011;45732;52.850;6.896;2022-11-30T03:14:17;35.08;;;24.48;;
59854;SDS011;45732;52.850;6.896;2022-11-30T03:16:42;35.92;;;24.15;;
59854;SDS011;45732;52.850;6.896;2022-11-30T03:19:08;36.78;;;23.98;;
59854;SDS011;45732;52.850;6.896;2022-11-30T03:21:34;36.95;;;25.00;;
59854;SDS011;45732;52.850;6.896;2022-11-30T03:24:00;36.13;;;24.45;;
59854;SDS011;45732;52.850;6.896;2022-11-30T03:26:25;36.90;;;25.00;;
59854;SDS011;45732;52.850;6.896;2022-11-30T03:28:51;36.17;;;24.85;;
59854;SDS011;45732;52.850;6.896;2022-11-30T03:31:17;36.17;;;25.10;;
59854;SDS011;45732;52.850;6.896;2022-11-30T03:33:43;37.95;;;25.17;;
59854;SDS011;45732;52.850;6.896;2022-11-30T03:36:09;36.83;;;24.50;;
59854;SDS011;45732;52.850;6.896;2022-11-30T03:38:36;37.83;;;25.10;;
59854;SDS011;45732;52.850;6.896;2022-11-30T03:41:03;35.25;;;23.05;;
59854;SDS011;45732;52.850;6.896;2022-11-30T03:43:34;37.83;;;24.90;;
59854;SDS011;45732;52.850;6.896;2022-11-30T03:46:00;39.25;;;25.65;;
59854;SDS011;45732;52.850;6.896;2022-11-30T03:48:26;35.55;;;24.17;;
59854;SDS011;45732;52.850;6.896;2022-11-30T03:50:52;39.40;;;25.35;;
59854;SDS011;45732;52.850;6.896;2022-11-30T03:53:18;35.85;;;23.63;;
59854;SDS011;45732;52.850;6.896;2022-11-30T03:55:45;38.33;;;23.55;;
59854;SDS011;45732;52.850;6.896;2022-11-30T03:58:11;35.17;;;23.13;;
59854;SDS011;45732;52.850;6.896;2022-11-30T04:00:37;36.03;;;23.42;;
59854;SDS011;45732;52.850;6.896;2022-11-30T04:03:03;40.53;;;25.27;;
59854;SDS011;45732;52.850;6.896;2022-11-30T04:05:29;39.95;;;24.55;;
59854;SDS011;45732;52.850;6.896;2022-11-30T04:07:54;39.95;;;25.13;;
59854;SDS011;45732;52.850;6.896;2022-11-30T04:10:20;40.03;;;25.27;;
59854;SDS011;45732;52.850;6.896;2022-11-30T04:12:47;37.90;;;23.85;;
59854;SDS011;45732;52.850;6.896;2022-11-30T04:15:13;41.33;;;25.13;;
59854;SDS011;45732;52.850;6.896;2022-11-30T04:17:39;39.22;;;23.75;;
59854;SDS011;45732;52.850;6.896;2022-11-30T04:20:05;39.65;;;25.88;;
59854;SDS011;45732;52.850;6.896;2022-11-30T04:22:31;40.70;;;25.35;;
59854;SDS011;45732;52.850;6.896;2022-11-30T04:24:57;40.10;;;24.77;;
59854;SDS011;45732;52.850;6.896;2022-11-30T04:27:23;39.40;;;24.17;;
59854;SDS011;45732;52.850;6.896;2022-11-30T04:29:49;41.28;;;25.60;;
59854;SDS011;45732;52.850;6.896;2022-11-30T04:32:15;42.20;;;25.63;;
59854;SDS011;45732;52.850;6.896;2022-11-30T04:34:40;40.63;;;26.55;;
59854;SDS011;45732;52.850;6.896;2022-11-30T04:37:06;40.63;;;26.02;;
59854;SDS011;45732;52.850;6.896;2022-11-30T04:39:32;41.95;;;26.02;;
59854;SDS011;45732;52.850;6.896;2022-11-30T04:41:59;40.22;;;26.45;;
59854;SDS011;45732;52.850;6.896;2022-11-30T04:44:25;41.22;;;25.15;;
59854;SDS011;45732;52.850;6.896;2022-11-30T04:46:51;38.63;;;25.25;;
59854;SDS011;45732;52.850;6.896;2022-11-30T04:49:17;35.17;;;24.15;;
59854;SDS011;45732;52.850;6.896;2022-11-30T04:51:42;32.75;;;22.60;;
59854;SDS011;45732;52.850;6.896;2022-11-30T04:54:08;33.25;;;22.42;;
59854;SDS011;45732;52.850;6.896;2022-11-30T04:56:34;32.25;;;22.83;;
59854;SDS011;45732;52.850;6.896;2022-11-30T04:59:00;31.13;;;21.67;;
59854;SDS011;45732;52.850;6.896;2022-11-30T05:01:26;33.65;;;22.85;;
59854;SDS011;45732;52.850;6.896;2022-11-30T05:03:52;32.53;;;23.17;;
59854;SDS011;45732;52.850;6.896;2022-11-30T05:06:17;32.53;;;22.88;;
59854;SDS011;45732;52.850;6.896;2022-11-30T05:08:43;33.00;;;22.55;;
59854;SDS011;45732;52.850;6.896;2022-11-30T05:11:09;31.02;;;22.13;;
59854;SDS011;45732;52.850;6.896;2022-11-30T05:13:34;32.65;;;22.85;;
59854;SDS011;45732;52.850;6.896;2022-11-30T05:16:00;31.55;;;22.75;;
59854;SDS011;45732;52.850;6.896;2022-11-30T05:18:26;32.83;;;22.50;;
59854;SDS011;45732;52.850;6.896;2022-11-30T05:20:53;31.50;;;22.13;;
59854;SDS011;45732;52.850;6.896;2022-11-30T05:23:19;30.98;;;21.95;;
59854;SDS011;45732;52.850;6.896;2022-11-30T05:25:45;31.15;;;22.02;;
59854;SDS011;45732;52.850;6.896;2022-11-30T05:28:11;32.08;;;22.58;;
59854;SDS011;45732;52.850;6.896;2022-11-30T05:30:38;31.75;;;21.42;;
59854;SDS011;45732;52.850;6.896;2022-11-30T05:33:05;31.58;;;22.63;;
59854;SDS011;45732;52.850;6.896;2022-11-30T05:35:31;32.13;;;22.88;;
59854;SDS011;45732;52.850;6.896;2022-11-30T05:37:57;31.85;;;22.50;;
59854;SDS011;45732;52.850;6.896;2022-11-30T05:40:23;35.70;;;22.77;;
59854;SDS011;45732;52.850;6.896;2022-11-30T05:42:56;33.60;;;23.27;;
59854;SDS011;45732;52.850;6.896;2022-11-30T05:47:48;31.70;;;22.40;;
59854;SDS011;45732;52.850;6.896;2022-11-30T05:50:14;36.30;;;23.88;;
59854;SDS011;45732;52.850;6.896;2022-11-30T05:52:40;36.20;;;23.67;;
59854;SDS011;45732;52.850;6.896;2022-11-30T05:55:06;34.28;;;22.45;;
59854;SDS011;45732;52.850;6.896;2022-11-30T05:57:35;34.28;;;23.17;;
59854;SDS011;45732;52.850;6.896;2022-11-30T06:00:05;34.40;;;23.55;;
59854;SDS011;45732;52.850;6.896;2022-11-30T06:02:33;32.08;;;21.33;;
59854;SDS011;45732;52.850;6.896;2022-11-30T06:04:59;33.67;;;23.23;;
59854;SDS011;45732;52.850;6.896;2022-11-30T06:07:25;31.35;;;21.75;;
59854;SDS011;45732;52.850;6.896;2022-11-30T06:09:51;30.23;;;21.85;;
59854;SDS011;45732;52.850;6.896;2022-11-30T06:12:16;30.42;;;21.52;;
59854;SDS011;45732;52.850;6.896;2022-11-30T06:14:42;27.85;;;20.20;;
59854;SDS011;45732;52.850;6.896;2022-11-30T06:17:08;29.80;;;20.40;;
59854;SDS011;45732;52.850;6.896;2022-11-30T06:19:33;30.95;;;22.73;;
59854;SDS011;45732;52.850;6.896;2022-11-30T06:21:59;30.25;;;20.02;;
59854;SDS011;45732;52.850;6.896;2022-11-30T06:24:25;29.33;;;19.88;;
59854;SDS011;45732;52.850;6.896;2022-11-30T06:26:50;30.05;;;20.30;;
59854;SDS011;45732;52.850;6.896;2022-11-30T06:29:16;29.80;;;20.23;;
59854;SDS011;45732;52.850;6.896;2022-11-30T06:31:41;30.35;;;20.60;;
59854;SDS011;45732;52.850;6.896;2022-11-30T06:34:07;28.80;;;20.48;;
59854;SDS011;45732;52.850;6.896;2022-11-30T06:36:33;33.97;;;21.50;;
59854;SDS011;45732;52.850;6.896;2022-11-30T06:38:58;30.58;;;20.38;;
59854;SDS011;45732;52.850;6.896;2022-11-30T06:41:24;29.05;;;20.25;;
59854;SDS011;45732;52.850;6.896;2022-11-30T06:43:50;31.25;;;20.85;;
59854;SDS011;45732;52.850;6.896;2022-11-30T06:46:16;30.30;;;19.95;;
59854;SDS011;45732;52.850;6.896;2022-11-30T06:48:42;27.42;;;19.40;;
59854;SDS011;45732;52.850;6.896;2022-11-30T06:51:11;28.00;;;19.80;;
59854;SDS011;45732;52.850;6.896;2022-11-30T06:53:37;29.13;;;19.90;;
59854;SDS011;45732;52.850;6.896;2022-11-30T06:56:03;29.05;;;19.83;;
59854;SDS011;45732;52.850;6.896;2022-11-30T06:58:30;31.15;;;20.52;;
59854;SDS011;45732;52.850;6.896;2022-11-30T07:00:56;29.67;;;20.63;;
59854;SDS011;45732;52.850;6.896;2022-11-30T07:03:21;30.80;;;20.77;;
59854;SDS011;45732;52.850;6.896;2022-11-30T07:05:47;27.00;;;19.13;;
59854;SDS011;45732;52.850;6.896;2022-11-30T07:08:14;25.73;;;18.80;;
59854;SDS011;45732;52.850;6.896;2022-11-30T07:10:41;28.55;;;19.13;;
59854;SDS011;45732;52.850;6.896;2022-11-30T07:13:26;26.13;;;17.73;;
59854;SDS011;45732;52.850;6.896;2022-11-30T07:15:52;24.27;;;17.45;;
59854;SDS011;45732;52.850;6.896;2022-11-30T07:18:17;27.05;;;17.80;;
59854;SDS011;45732;52.850;6.896;2022-11-30T07:20:43;28.13;;;17.27;;
59854;SDS011;45732;52.850;6.896;2022-11-30T07:23:09;26.60;;;17.67;;
59854;SDS011;45732;52.850;6.896;2022-11-30T07:25:53;24.75;;;17.20;;
59854;SDS011;45732;52.850;6.896;2022-11-30T07:28:30;22.90;;;16.70;;
59854;SDS011;45732;52.850;6.896;2022-11-30T07:30:56;24.75;;;17.55;;
59854;SDS011;45732;52.850;6.896;2022-11-30T07:33:22;24.23;;;17.23;;
59854;SDS011;45732;52.850;6.896;2022-11-30T07:35:47;23.02;;;17.20;;
59854;SDS011;45732;52.850;6.896;2022-11-30T07:38:13;28.75;;;18.25;;
59854;SDS011;45732;52.850;6.896;2022-11-30T07:40:39;23.83;;;17.30;;
59854;SDS011;45732;52.850;6.896;2022-11-30T07:43:04;23.75;;;16.75;;
59854;SDS011;45732;52.850;6.896;2022-11-30T07:45:30;23.23;;;16.92;;
59854;SDS011;45732;52.850;6.896;2022-11-30T07:47:57;23.75;;;16.83;;
59854;SDS011;45732;52.850;6.896;2022-11-30T07:50:23;23.73;;;17.15;;
59854;SDS011;45732;52.850;6.896;2022-11-30T07:52:49;25.30;;;17.27;;
59854;SDS011;45732;52.850;6.896;2022-11-30T07:55:14;22.85;;;16.33;;
59854;SDS011;45732;52.850;6.896;2022-11-30T07:57:40;23.05;;;16.13;;
59854;SDS011;45732;52.850;6.896;2022-11-30T08:00:06;23.80;;;17.27;;
59854;SDS011;45732;52.850;6.896;2022-11-30T08:02:33;23.15;;;16.27;;
59854;SDS011;45732;52.850;6.896;2022-11-30T08:04:59;20.95;;;16.17;;
59854;SDS011;45732;52.850;6.896;2022-11-30T08:07:24;20.65;;;16.05;;
59854;SDS011;45732;52.850;6.896;2022-11-30T08:09:50;21.42;;;16.20;;
59854;SDS011;45732;52.850;6.896;2022-11-30T08:12:16;21.80;;;15.48;;
59854;SDS011;45732;52.850;6.896;2022-11-30T08:14:41;21.75;;;16.48;;
59854;SDS011;45732;52.850;6.896;2022-11-30T08:17:07;21.58;;;15.82;;
59854;SDS011;45732;52.850;6.896;2022-11-30T08:19:33;22.33;;;15.93;;
59854;SDS011;45732;52.850;6.896;2022-11-30T08:21:59;22.77;;;16.27;;
59854;SDS011;45732;52.850;6.896;2022-11-30T08:24:24;21.42;;;15.70;;
59854;SDS011;45732;52.850;6.896;2022-11-30T08:26:50;21.38;;;16.33;;
59854;SDS011;45732;52.850;6.896;2022-11-30T08:29:17;20.50;;;15.88;;
59854;SDS011;45732;52.850;6.896;2022-11-30T08:31:43;20.35;;;15.25;;
59854;SDS011;45732;52.850;6.896;2022-11-30T08:34:11;19.27;;;15.10;;
59854;SDS011;45732;52.850;6.896;2022-11-30T08:36:38;19.23;;;14.32;;
59854;SDS011;45732;52.850;6.896;2022-11-30T08:39:05;19.10;;;14.52;;
59854;SDS011;45732;52.850;6.896;2022-11-30T08:41:32;20.20;;;14.15;;
59854;SDS011;45732;52.850;6.896;2022-11-30T08:43:59;19.10;;;15.15;;
59854;SDS011;45732;52.850;6.896;2022-11-30T08:46:25;18.48;;;14.45;;
59854;SDS011;45732;52.850;6.896;2022-11-30T08:48:52;18.25;;;14.50;;
59854;SDS011;45732;52.850;6.896;2022-11-30T08:51:18;18.90;;;14.20;;
59854;SDS011;45732;52.850;6.896;2022-11-30T08:53:45;17.77;;;14.38;;
59854;SDS011;45732;52.850;6.896;2022-11-30T08:56:16;20.27;;;14.70;;
59854;SDS011;45732;52.850;6.896;2022-11-30T08:58:43;19.17;;;14.98;;
59854;SDS011;45732;52.850;6.896;2022-11-30T09:01:13;21.25;;;15.63;;
59854;SDS011;45732;52.850;6.896;2022-11-30T09:03:47;20.95;;;15.50;;
59854;SDS011;45732;52.850;6.896;2022-11-30T09:06:19;23.10;;;15.80;;
59854;SDS011;45732;52.850;6.896;2022-11-30T09:08:47;23.23;;;16.33;;
59854;SDS011;45732;52.850;6.896;2022-11-30T09:11:16;20.75;;;15.15;;
59854;SDS011;45732;52.850;6.896;2022-11-30T09:13:46;21.77;;;15.60;;
59854;SDS011;45732;52.850;6.896;2022-11-30T09:16:16;22.25;;;15.77;;
59854;SDS011;45732;52.850;6.896;2022-11-30T09:18:44;20.35;;;15.43;;
59854;SDS011;45732;52.850;6.896;2022-11-30T09:21:11;20.23;;;15.32;;
59854;SDS011;45732;52.850;6.896;2022-11-30T09:23:38;21.23;;;15.73;;
59854;SDS011;45732;52.850;6.896;2022-11-30T09:26:06;19.83;;;15.15;;
59854;SDS011;45732;52.850;6.896;2022-11-30T09:28:34;20.98;;;14.50;;
59854;SDS011;45732;52.850;6.896;2022-11-30T09:31:00;19.45;;;15.23;;
59854;SDS011;45732;52.850;6.896;2022-11-30T09:33:28;22.00;;;15.90;;
59854;SDS011;45732;52.850;6.896;2022-11-30T09:35:55;21.02;;;15.45;;
59854;SDS011;45732;52.850;6.896;2022-11-30T09:38:24;20.25;;;15.25;;
59854;SDS011;45732;52.850;6.896;2022-11-30T09:40:57;23.08;;;16.15;;
59854;SDS011;45732;52.850;6.896;2022-11-30T09:46:17;21.23;;;14.98;;
59854;SDS011;45732;52.850;6.896;2022-11-30T09:51:50;19.10;;;15.02;;
59854;SDS011;45732;52.850;6.896;2022-11-30T09:54:24;23.58;;;16.63;;
59854;SDS011;45732;52.850;6.896;2022-11-30T09:59:55;20.48;;;14.95;;
59854;SDS011;45732;52.850;6.896;2022-11-30T10:02:25;20.00;;;15.25;;
59854;SDS011;45732;52.850;6.896;2022-11-30T10:04:54;19.40;;;14.88;;
59854;SDS011;45732;52.850;6.896;2022-11-30T10:12:50;19.85;;;15.68;;
59854;SDS011;45732;52.850;6.896;2022-11-30T10:21:43;20.33;;;15.65;;
59854;SDS011;45732;52.850;6.896;2022-11-30T10:24:17;19.48;;;15.50;;
59854;SDS011;45732;52.850;6.896;2022-11-30T10:27:03;20.10;;;15.88;;
59854;SDS011;45732;52.850;6.896;2022-11-30T10:30:00;22.13;;;16.50;;
59854;SDS011;45732;52.850;6.896;2022-11-30T10:32:34;22.20;;;16.35;;
59854;SDS011;45732;52.850;6.896;2022-11-30T10:35:44;23.30;;;17.65;;
59854;SDS011;45732;52.850;6.896;2022-11-30T10:37:57;23.65;;;17.83;;
59854;SDS011;45732;52.850;6.896;2022-11-30T10:43:22;24.48;;;17.90;;
59854;SDS011;45732;52.850;6.896;2022-11-30T10:46:02;22.23;;;17.13;;
59854;SDS011;45732;52.850;6.896;2022-11-30T10:48:39;22.90;;;17.95;;
59854;SDS011;45732;52.850;6.896;2022-11-30T10:51:06;22.83;;;17.30;;
59854;SDS011;45732;52.850;6.896;2022-11-30T10:53:34;22.80;;;17.13;;
59854;SDS011;45732;52.850;6.896;2022-11-30T10:56:08;23.73;;;17.25;;
59854;SDS011;45732;52.850;6.896;2022-11-30T10:58:37;23.23;;;17.17;;
59854;SDS011;45732;52.850;6.896;2022-11-30T11:01:10;25.40;;;18.73;;
59854;SDS011;45732;52.850;6.896;2022-11-30T11:06:50;26.00;;;18.60;;
59854;SDS011;45732;52.850;6.896;2022-11-30T11:11:59;26.55;;;19.45;;
59854;SDS011;45732;52.850;6.896;2022-11-30T11:14:30;27.02;;;19.23;;
59854;SDS011;45732;52.850;6.896;2022-11-30T11:16:58;31.77;;;20.95;;
59854;SDS011;45732;52.850;6.896;2022-11-30T11:21:56;30.30;;;20.77;;
59854;SDS011;45732;52.850;6.896;2022-11-30T11:24:24;33.65;;;21.15;;
59854;SDS011;45732;52.850;6.896;2022-11-30T11:26:51;31.58;;;21.52;;
59854;SDS011;45732;52.850;6.896;2022-11-30T11:29:36;37.58;;;23.65;;
59854;SDS011;45732;52.850;6.896;2022-11-30T11:34:47;38.30;;;24.30;;
59854;SDS011;45732;52.850;6.896;2022-11-30T11:39:42;40.33;;;25.35;;
59854;SDS011;45732;52.850;6.896;2022-11-30T11:42:15;37.80;;;24.83;;
59854;SDS011;45732;52.850;6.896;2022-11-30T11:44:48;41.28;;;26.08;;
59854;SDS011;45732;52.850;6.896;2022-11-30T11:47:23;38.72;;;25.90;;
59854;SDS011;45732;52.850;6.896;2022-11-30T11:49:51;41.08;;;26.00;;
59854;SDS011;45732;52.850;6.896;2022-11-30T11:52:42;37.75;;;25.65;;
59854;SDS011;45732;52.850;6.896;2022-11-30T11:55:11;38.50;;;26.35;;
59854;SDS011;45732;52.850;6.896;2022-11-30T11:57:52;39.22;;;25.58;;
59854;SDS011;45732;52.850;6.896;2022-11-30T12:00:22;40.45;;;26.25;;
59854;SDS011;45732;52.850;6.896;2022-11-30T12:05:27;43.08;;;27.85;;
59854;SDS011;45732;52.850;6.896;2022-11-30T12:08:19;46.35;;;29.27;;
59854;SDS011;45732;52.850;6.896;2022-11-30T12:11:00;46.03;;;28.80;;
59854;SDS011;45732;52.850;6.896;2022-11-30T12:13:39;47.40;;;28.67;;
59854;SDS011;45732;52.850;6.896;2022-11-30T12:26:44;44.55;;;26.58;;
59854;SDS011;45732;52.850;6.896;2022-11-30T12:31:45;48.05;;;28.65;;
59854;SDS011;45732;52.850;6.896;2022-11-30T12:37:22;52.95;;;30.70;;
59854;SDS011;45732;52.850;6.896;2022-11-30T12:43:00;57.78;;;32.40;;
59854;SDS011;45732;52.850;6.896;2022-11-30T12:45:47;56.90;;;30.60;;
59854;SDS011;45732;52.850;6.896;2022-11-30T12:48:22;58.47;;;31.95;;
59854;SDS011;45732;52.850;6.896;2022-11-30T12:56:39;56.10;;;32.58;;
59854;SDS011;45732;52.850;6.896;2022-11-30T12:59:42;61.72;;;33.30;;
59854;SDS011;45732;52.850;6.896;2022-11-30T13:09:55;63.78;;;34.75;;
59854;SDS011;45732;52.850;6.896;2022-11-30T13:12:35;66.90;;;35.72;;
59854;SDS011;45732;52.850;6.896;2022-11-30T13:15:04;61.35;;;35.40;;
59854;SDS011;45732;52.850;6.896;2022-11-30T13:17:41;59.92;;;33.42;;
59854;SDS011;45732;52.850;6.896;2022-11-30T13:20:16;59.55;;;33.63;;
59854;SDS011;45732;52.850;6.896;2022-11-30T13:23:00;56.45;;;30.88;;
59854;SDS011;45732;52.850;6.896;2022-11-30T13:30:43;57.60;;;33.00;;
59854;SDS011;45732;52.850;6.896;2022-11-30T13:41:41;64.35;;;36.80;;
59854;SDS011;45732;52.850;6.896;2022-11-30T13:44:23;58.67;;;34.38;;
59854;SDS011;45732;52.850;6.896;2022-11-30T13:46:49;58.92;;;34.78;;
59854;SDS011;45732;52.850;6.896;2022-11-30T13:49:23;53.95;;;33.25;;
59854;SDS011;45732;52.850;6.896;2022-11-30T13:51:53;56.25;;;35.08;;
59854;SDS011;45732;52.850;6.896;2022-11-30T13:59:56;58.90;;;34.95;;
59854;SDS011;45732;52.850;6.896;2022-11-30T14:07:39;59.28;;;34.45;;
59854;SDS011;45732;52.850;6.896;2022-11-30T14:20:40;59.80;;;36.53;;
59854;SDS011;45732;52.850;6.896;2022-11-30T14:23:47;59.95;;;35.92;;
59854;SDS011;45732;52.850;6.896;2022-11-30T14:26:16;57.58;;;35.00;;
59854;SDS011;45732;52.850;6.896;2022-11-30T14:34:23;60.38;;;34.03;;
59854;SDS011;45732;52.850;6.896;2022-11-30T14:36:58;61.03;;;35.95;;
59854;SDS011;45732;52.850;6.896;2022-11-30T14:39:34;58.85;;;34.97;;
59854;SDS011;45732;52.850;6.896;2022-11-30T14:42:03;61.28;;;35.33;;
59854;SDS011;45732;52.850;6.896;2022-11-30T14:44:38;61.92;;;35.85;;
59854;SDS011;45732;52.850;6.896;2022-11-30T14:49:47;64.90;;;35.73;;
59854;SDS011;45732;52.850;6.896;2022-11-30T14:55:16;60.22;;;34.33;;
59854;SDS011;45732;52.850;6.896;2022-11-30T15:00:43;53.13;;;31.67;;
59854;SDS011;45732;52.850;6.896;2022-11-30T15:03:17;48.83;;;29.65;;
59854;SDS011;45732;52.850;6.896;2022-11-30T15:05:51;58.00;;;33.05;;
59854;SDS011;45732;52.850;6.896;2022-11-30T15:08:20;55.95;;;32.72;;
59854;SDS011;45732;52.850;6.896;2022-11-30T15:10:46;56.55;;;33.55;;
59854;SDS011;45732;52.850;6.896;2022-11-30T15:13:13;54.88;;;32.25;;
59854;SDS011;45732;52.850;6.896;2022-11-30T15:15:54;55.40;;;31.55;;
59854;SDS011;45732;52.850;6.896;2022-11-30T15:18:23;58.90;;;32.80;;
59854;SDS011;45732;52.850;6.896;2022-11-30T15:21:04;58.80;;;32.78;;
59854;SDS011;45732;52.850;6.896;2022-11-30T15:23:32;54.80;;;32.78;;
59854;SDS011;45732;52.850;6.896;2022-11-30T15:25:59;60.55;;;33.60;;
59854;SDS011;45732;52.850;6.896;2022-11-30T15:28:38;59.03;;;33.13;;
59854;SDS011;45732;52.850;6.896;2022-11-30T15:31:09;57.25;;;32.72;;
59854;SDS011;45732;52.850;6.896;2022-11-30T15:33:43;59.97;;;34.15;;
59854;SDS011;45732;52.850;6.896;2022-11-30T15:36:11;54.75;;;34.42;;
59854;SDS011;45732;52.850;6.896;2022-11-30T15:38:37;56.15;;;34.50;;
59854;SDS011;45732;52.850;6.896;2022-11-30T15:41:04;58.60;;;34.42;;
59854;SDS011;45732;52.850;6.896;2022-11-30T15:43:46;56.42;;;33.72;;
59854;SDS011;45732;52.850;6.896;2022-11-30T15:46:30;55.92;;;32.63;;
59854;SDS011;45732;52.850;6.896;2022-11-30T15:49:04;52.80;;;32.08;;
59854;SDS011;45732;52.850;6.896;2022-11-30T15:51:38;52.13;;;32.30;;
59854;SDS011;45732;52.850;6.896;2022-11-30T15:54:06;54.33;;;32.88;;
59854;SDS011;45732;52.850;6.896;2022-11-30T15:56:33;55.78;;;31.98;;
59854;SDS011;45732;52.850;6.896;2022-11-30T15:59:23;58.20;;;34.53;;
59854;SDS011;45732;52.850;6.896;2022-11-30T16:01:59;58.38;;;33.78;;
59854;SDS011;45732;52.850;6.896;2022-11-30T16:07:30;52.58;;;31.45;;
59854;SDS011;45732;52.850;6.896;2022-11-30T16:10:03;52.33;;;31.42;;
59854;SDS011;45732;52.850;6.896;2022-11-30T16:12:28;54.00;;;32.00;;
59854;SDS011;45732;52.850;6.896;2022-11-30T16:14:55;57.83;;;32.80;;
59854;SDS011;45732;52.850;6.896;2022-11-30T16:17:21;54.05;;;32.05;;
59854;SDS011;45732;52.850;6.896;2022-11-30T16:19:47;48.65;;;31.30;;
59854;SDS011;45732;52.850;6.896;2022-11-30T16:22:13;52.60;;;31.17;;
59854;SDS011;45732;52.850;6.896;2022-11-30T16:24:40;55.67;;;32.97;;
59854;SDS011;45732;52.850;6.896;2022-11-30T16:27:15;53.53;;;31.08;;
59854;SDS011;45732;52.850;6.896;2022-11-30T16:29:43;50.80;;;31.83;;
59854;SDS011;45732;52.850;6.896;2022-11-30T16:32:10;54.05;;;32.30;;
59854;SDS011;45732;52.850;6.896;2022-11-30T16:34:37;52.50;;;31.98;;
59854;SDS011;45732;52.850;6.896;2022-11-30T16:37:03;50.20;;;31.77;;
59854;SDS011;45732;52.850;6.896;2022-11-30T16:39:29;53.75;;;31.83;;
59854;SDS011;45732;52.850;6.896;2022-11-30T16:41:55;53.47;;;31.13;;
59854;SDS011;45732;52.850;6.896;2022-11-30T16:44:21;56.30;;;33.42;;
59854;SDS011;45732;52.850;6.896;2022-11-30T16:46:48;54.70;;;31.58;;
59854;SDS011;45732;52.850;6.896;2022-11-30T16:49:15;52.63;;;31.38;;
59854;SDS011;45732;52.850;6.896;2022-11-30T16:51:41;59.95;;;34.03;;
59854;SDS011;45732;52.850;6.896;2022-11-30T16:54:10;57.67;;;34.42;;
59854;SDS011;45732;52.850;6.896;2022-11-30T16:56:38;59.95;;;34.40;;
59854;SDS011;45732;52.850;6.896;2022-11-30T16:59:07;57.50;;;35.47;;